sensor_id;sensor_type;location;lat;lon;timestamp;P1;durP1;ratioP1;P2;durP2;ratioP2
51475;SDS011;37554;50.362;7.568;2023-12-07T00:01:57;3.83;;;3.35;;
51475;SDS011;37554;50.362;7.568;2023-12-07T00:04:23;3.95;;;3.00;;
51475;SDS011;37554;50.362;7.568;2023-12-07T00:06:48;4.55;;;3.30;;
51475;SDS011;37554;50.362;7.568;2023-12-07T00:09:14;5.57;;;3.42;;
51475;SDS011;37554;50.362;7.568;2023-12-07T00:11:39;3.80;;;3.40;;
51475;SDS011;37554;50.362;7.568;2023-12-07T00:14:05;5.90;;;3.60;;
51475;SDS011;37554;50.362;7.568;2023-12-07T00:16:31;4.53;;;3.30;;
51475;SDS011;37554;50.362;7.568;2023-12-07T00:18:56;5.32;;;3.42;;
51475;SDS011;37554;50.362;7.568;2023-12-07T00:21:22;4.28;;;3.15;;
51475;SDS011;37554;50.362;7.568;2023-12-07T00:23:47;4.55;;;3.35;;
51475;SDS011;37554;50.362;7.568;2023-12-07T00:26:13;3.88;;;3.20;;
51475;SDS011;37554;50.362;7.568;2023-12-07T00:28:39;3.90;;;3.50;;
51475;SDS011;37554;50.362;7.568;2023-12-07T00:31:04;4.50;;;3.60;;
51475;SDS011;37554;50.362;7.568;2023-12-07T00:33:30;4.35;;;3.95;;
51475;SDS011;37554;50.362;7.568;2023-12-07T00:35:56;5.07;;;3.80;;
51475;SDS011;37554;50.362;7.568;2023-12-07T00:38:21;3.95;;;3.45;;
51475;SDS011;37554;50.362;7.568;2023-12-07T00:40:47;4.35;;;3.40;;
51475;SDS011;37554;50.362;7.568;2023-12-07T00:43:13;6.18;;;3.50;;
51475;SDS011;37554;50.362;7.568;2023-12-07T00:45:39;4.78;;;3.55;;
51475;SDS011;37554;50.362;7.568;2023-12-07T00:48:04;4.38;;;3.45;;
51475;SDS011;37554;50.362;7.568;2023-12-07T00:50:30;5.22;;;3.38;;
51475;SDS011;37554;50.362;7.568;2023-12-07T00:52:56;5.15;;;3.60;;
51475;SDS011;37554;50.362;7.568;2023-12-07T00:55:21;3.85;;;3.08;;
51475;SDS011;37554;50.362;7.568;2023-12-07T00:57:47;4.47;;;3.28;;
51475;SDS011;37554;50.362;7.568;2023-12-07T01:00:13;4.47;;;3.58;;
51475;SDS011;37554;50.362;7.568;2023-12-07T01:02:38;3.75;;;3.17;;
51475;SDS011;37554;50.362;7.568;2023-12-07T01:05:05;3.28;;;2.97;;
51475;SDS011;37554;50.362;7.568;2023-12-07T01:07:30;4.95;;;3.63;;
51475;SDS011;37554;50.362;7.568;2023-12-07T01:09:56;5.25;;;3.72;;
51475;SDS011;37554;50.362;7.568;2023-12-07T01:12:22;4.57;;;3.33;;
51475;SDS011;37554;50.362;7.568;2023-12-07T01:14:47;6.10;;;4.03;;
51475;SDS011;37554;50.362;7.568;2023-12-07T01:17:13;5.43;;;3.20;;
51475;SDS011;37554;50.362;7.568;2023-12-07T01:19:38;4.00;;;3.00;;
51475;SDS011;37554;50.362;7.568;2023-12-07T01:22:04;5.20;;;3.28;;
51475;SDS011;37554;50.362;7.568;2023-12-07T01:24:30;3.88;;;3.47;;
51475;SDS011;37554;50.362;7.568;2023-12-07T01:26:55;3.95;;;3.22;;
51475;SDS011;37554;50.362;7.568;2023-12-07T01:29:21;4.47;;;3.70;;
51475;SDS011;37554;50.362;7.568;2023-12-07T01:31:46;3.97;;;3.20;;
51475;SDS011;37554;50.362;7.568;2023-12-07T01:34:12;4.05;;;3.42;;
51475;SDS011;37554;50.362;7.568;2023-12-07T01:36:37;5.45;;;3.40;;
51475;SDS011;37554;50.362;7.568;2023-12-07T01:39:03;4.45;;;3.08;;
51475;SDS011;37554;50.362;7.568;2023-12-07T01:41:29;3.67;;;2.97;;
51475;SDS011;37554;50.362;7.568;2023-12-07T01:43:55;4.97;;;3.15;;
51475;SDS011;37554;50.362;7.568;2023-12-07T01:46:20;5.63;;;3.13;;
51475;SDS011;37554;50.362;7.568;2023-12-07T01:48:46;4.15;;;2.90;;
51475;SDS011;37554;50.362;7.568;2023-12-07T01:51:14;3.75;;;3.00;;
51475;SDS011;37554;50.362;7.568;2023-12-07T01:53:41;3.72;;;3.30;;
51475;SDS011;37554;50.362;7.568;2023-12-07T01:56:07;3.30;;;2.80;;
51475;SDS011;37554;50.362;7.568;2023-12-07T01:58:34;4.85;;;3.13;;
51475;SDS011;37554;50.362;7.568;2023-12-07T02:01:00;3.22;;;2.90;;
51475;SDS011;37554;50.362;7.568;2023-12-07T02:03:27;4.40;;;3.30;;
51475;SDS011;37554;50.362;7.568;2023-12-07T02:05:54;4.88;;;3.13;;
51475;SDS011;37554;50.362;7.568;2023-12-07T02:08:20;4.00;;;3.00;;
51475;SDS011;37554;50.362;7.568;2023-12-07T02:10:46;4.35;;;2.85;;
51475;SDS011;37554;50.362;7.568;2023-12-07T02:13:11;4.32;;;3.00;;
51475;SDS011;37554;50.362;7.568;2023-12-07T02:15:37;3.53;;;2.72;;
51475;SDS011;37554;50.362;7.568;2023-12-07T02:23:29;3.35;;;2.65;;
51475;SDS011;37554;50.362;7.568;2023-12-07T02:25:57;3.95;;;2.95;;
51475;SDS011;37554;50.362;7.568;2023-12-07T02:28:28;4.20;;;2.85;;
51475;SDS011;37554;50.362;7.568;2023-12-07T02:30:54;4.95;;;3.25;;
51475;SDS011;37554;50.362;7.568;2023-12-07T02:33:19;4.20;;;3.03;;
51475;SDS011;37554;50.362;7.568;2023-12-07T02:35:45;3.75;;;3.00;;
51475;SDS011;37554;50.362;7.568;2023-12-07T02:38:11;3.20;;;2.65;;
51475;SDS011;37554;50.362;7.568;2023-12-07T02:40:37;3.47;;;2.90;;
51475;SDS011;37554;50.362;7.568;2023-12-07T02:43:05;4.90;;;3.00;;
51475;SDS011;37554;50.362;7.568;2023-12-07T02:45:31;4.30;;;3.05;;
51475;SDS011;37554;50.362;7.568;2023-12-07T02:47:58;4.72;;;3.03;;
51475;SDS011;37554;50.362;7.568;2023-12-07T02:50:23;3.38;;;2.90;;
51475;SDS011;37554;50.362;7.568;2023-12-07T02:52:49;3.72;;;3.05;;
51475;SDS011;37554;50.362;7.568;2023-12-07T02:55:15;4.25;;;3.10;;
51475;SDS011;37554;50.362;7.568;2023-12-07T02:57:40;4.15;;;3.03;;
51475;SDS011;37554;50.362;7.568;2023-12-07T03:00:06;5.13;;;3.17;;
51475;SDS011;37554;50.362;7.568;2023-12-07T03:02:36;4.15;;;2.65;;
51475;SDS011;37554;50.362;7.568;2023-12-07T03:05:02;3.67;;;2.80;;
51475;SDS011;37554;50.362;7.568;2023-12-07T03:07:29;3.53;;;3.22;;
51475;SDS011;37554;50.362;7.568;2023-12-07T03:09:54;3.55;;;2.78;;
51475;SDS011;37554;50.362;7.568;2023-12-07T03:12:20;3.45;;;3.15;;
51475;SDS011;37554;50.362;7.568;2023-12-07T03:14:46;4.45;;;3.20;;
51475;SDS011;37554;50.362;7.568;2023-12-07T03:17:11;5.70;;;3.15;;
51475;SDS011;37554;50.362;7.568;2023-12-07T03:19:40;4.53;;;3.33;;
51475;SDS011;37554;50.362;7.568;2023-12-07T03:22:07;3.33;;;2.97;;
51475;SDS011;37554;50.362;7.568;2023-12-07T03:24:37;3.65;;;2.78;;
51475;SDS011;37554;50.362;7.568;2023-12-07T03:27:03;3.42;;;3.03;;
51475;SDS011;37554;50.362;7.568;2023-12-07T03:29:29;3.78;;;3.38;;
51475;SDS011;37554;50.362;7.568;2023-12-07T03:31:55;4.03;;;3.25;;
51475;SDS011;37554;50.362;7.568;2023-12-07T03:34:20;4.60;;;3.38;;
51475;SDS011;37554;50.362;7.568;2023-12-07T03:36:46;4.13;;;2.75;;
51475;SDS011;37554;50.362;7.568;2023-12-07T03:39:13;3.60;;;2.80;;
51475;SDS011;37554;50.362;7.568;2023-12-07T03:41:39;3.40;;;3.10;;
51475;SDS011;37554;50.362;7.568;2023-12-07T03:44:05;4.07;;;3.08;;
51475;SDS011;37554;50.362;7.568;2023-12-07T03:46:31;3.60;;;3.20;;
51475;SDS011;37554;50.362;7.568;2023-12-07T03:48:56;4.35;;;3.10;;
51475;SDS011;37554;50.362;7.568;2023-12-07T03:51:28;3.80;;;3.40;;
51475;SDS011;37554;50.362;7.568;2023-12-07T03:53:55;4.22;;;2.75;;
51475;SDS011;37554;50.362;7.568;2023-12-07T03:56:24;2.95;;;2.65;;
51475;SDS011;37554;50.362;7.568;2023-12-07T03:58:53;3.50;;;3.20;;
51475;SDS011;37554;50.362;7.568;2023-12-07T04:01:22;3.60;;;3.15;;
51475;SDS011;37554;50.362;7.568;2023-12-07T04:03:49;3.88;;;3.13;;
51475;SDS011;37554;50.362;7.568;2023-12-07T04:06:14;4.78;;;3.00;;
51475;SDS011;37554;50.362;7.568;2023-12-07T04:08:41;4.95;;;3.20;;
51475;SDS011;37554;50.362;7.568;2023-12-07T04:11:07;4.03;;;3.00;;
51475;SDS011;37554;50.362;7.568;2023-12-07T04:13:33;3.28;;;2.90;;
51475;SDS011;37554;50.362;7.568;2023-12-07T04:15:58;3.50;;;2.90;;
51475;SDS011;37554;50.362;7.568;2023-12-07T04:18:24;3.67;;;3.25;;
51475;SDS011;37554;50.362;7.568;2023-12-07T04:20:49;3.45;;;2.78;;
51475;SDS011;37554;50.362;7.568;2023-12-07T04:23:15;3.00;;;2.70;;
51475;SDS011;37554;50.362;7.568;2023-12-07T04:25:41;4.03;;;2.90;;
51475;SDS011;37554;50.362;7.568;2023-12-07T04:28:06;2.97;;;2.60;;
51475;SDS011;37554;50.362;7.568;2023-12-07T04:30:32;3.30;;;2.70;;
51475;SDS011;37554;50.362;7.568;2023-12-07T04:32:58;4.13;;;3.15;;
51475;SDS011;37554;50.362;7.568;2023-12-07T04:35:23;3.28;;;2.97;;
51475;SDS011;37554;50.362;7.568;2023-12-07T04:37:49;3.42;;;3.03;;
51475;SDS011;37554;50.362;7.568;2023-12-07T04:40:14;3.28;;;2.97;;
51475;SDS011;37554;50.362;7.568;2023-12-07T04:42:40;3.58;;;2.70;;
51475;SDS011;37554;50.362;7.568;2023-12-07T04:45:06;5.28;;;2.78;;
51475;SDS011;37554;50.362;7.568;2023-12-07T04:47:32;4.18;;;3.13;;
51475;SDS011;37554;50.362;7.568;2023-12-07T04:49:58;4.50;;;3.38;;
51475;SDS011;37554;50.362;7.568;2023-12-07T04:52:24;3.45;;;2.75;;
51475;SDS011;37554;50.362;7.568;2023-12-07T04:54:49;4.35;;;3.03;;
51475;SDS011;37554;50.362;7.568;2023-12-07T04:57:15;3.10;;;2.80;;
51475;SDS011;37554;50.362;7.568;2023-12-07T04:59:41;3.97;;;3.42;;
51475;SDS011;37554;50.362;7.568;2023-12-07T05:02:11;3.15;;;2.85;;
51475;SDS011;37554;50.362;7.568;2023-12-07T05:04:41;3.58;;;3.25;;
51475;SDS011;37554;50.362;7.568;2023-12-07T05:07:07;3.38;;;2.83;;
51475;SDS011;37554;50.362;7.568;2023-12-07T05:09:33;5.43;;;3.17;;
51475;SDS011;37554;50.362;7.568;2023-12-07T05:11:59;2.90;;;2.60;;
51475;SDS011;37554;50.362;7.568;2023-12-07T05:14:24;3.85;;;3.38;;
51475;SDS011;37554;50.362;7.568;2023-12-07T05:16:50;5.68;;;3.38;;
51475;SDS011;37554;50.362;7.568;2023-12-07T05:19:20;3.15;;;2.85;;
51475;SDS011;37554;50.362;7.568;2023-12-07T05:21:51;3.67;;;2.90;;
51475;SDS011;37554;50.362;7.568;2023-12-07T05:24:16;3.67;;;2.90;;
51475;SDS011;37554;50.362;7.568;2023-12-07T05:26:42;5.72;;;3.25;;
51475;SDS011;37554;50.362;7.568;2023-12-07T05:29:10;4.68;;;3.20;;
51475;SDS011;37554;50.362;7.568;2023-12-07T05:31:36;3.35;;;3.05;;
51475;SDS011;37554;50.362;7.568;2023-12-07T05:34:02;3.53;;;3.22;;
51475;SDS011;37554;50.362;7.568;2023-12-07T05:36:28;4.28;;;3.42;;
51475;SDS011;37554;50.362;7.568;2023-12-07T05:38:54;5.00;;;2.75;;
51475;SDS011;37554;50.362;7.568;2023-12-07T05:41:20;4.60;;;3.35;;
51475;SDS011;37554;50.362;7.568;2023-12-07T05:43:45;3.55;;;2.88;;
51475;SDS011;37554;50.362;7.568;2023-12-07T05:46:11;4.10;;;2.97;;
51475;SDS011;37554;50.362;7.568;2023-12-07T05:48:37;3.75;;;3.03;;
51475;SDS011;37554;50.362;7.568;2023-12-07T05:51:03;3.70;;;3.15;;
51475;SDS011;37554;50.362;7.568;2023-12-07T05:53:29;4.30;;;3.25;;
51475;SDS011;37554;50.362;7.568;2023-12-07T05:55:55;3.55;;;3.20;;
51475;SDS011;37554;50.362;7.568;2023-12-07T05:58:22;3.20;;;2.90;;
51475;SDS011;37554;50.362;7.568;2023-12-07T06:00:47;4.97;;;3.45;;
51475;SDS011;37554;50.362;7.568;2023-12-07T06:03:13;4.00;;;3.05;;
51475;SDS011;37554;50.362;7.568;2023-12-07T06:05:39;6.55;;;3.50;;
51475;SDS011;37554;50.362;7.568;2023-12-07T06:08:05;3.83;;;3.22;;
51475;SDS011;37554;50.362;7.568;2023-12-07T06:10:31;4.63;;;3.47;;
51475;SDS011;37554;50.362;7.568;2023-12-07T06:12:56;3.45;;;3.15;;
51475;SDS011;37554;50.362;7.568;2023-12-07T06:15:25;4.22;;;3.42;;
51475;SDS011;37554;50.362;7.568;2023-12-07T06:17:51;3.72;;;3.42;;
51475;SDS011;37554;50.362;7.568;2023-12-07T06:20:17;4.88;;;3.45;;
51475;SDS011;37554;50.362;7.568;2023-12-07T06:22:42;3.58;;;3.17;;
51475;SDS011;37554;50.362;7.568;2023-12-07T06:25:08;3.50;;;3.03;;
51475;SDS011;37554;50.362;7.568;2023-12-07T06:27:34;3.42;;;3.13;;
51475;SDS011;37554;50.362;7.568;2023-12-07T06:30:00;4.10;;;3.50;;
51475;SDS011;37554;50.362;7.568;2023-12-07T06:32:26;3.60;;;3.00;;
51475;SDS011;37554;50.362;7.568;2023-12-07T06:34:52;3.95;;;3.55;;
51475;SDS011;37554;50.362;7.568;2023-12-07T06:37:18;3.35;;;3.05;;
51475;SDS011;37554;50.362;7.568;2023-12-07T06:39:45;6.47;;;5.70;;
51475;SDS011;37554;50.362;7.568;2023-12-07T06:42:11;8.80;;;5.93;;
51475;SDS011;37554;50.362;7.568;2023-12-07T06:44:36;9.95;;;7.32;;
51475;SDS011;37554;50.362;7.568;2023-12-07T06:47:02;9.15;;;6.10;;
51475;SDS011;37554;50.362;7.568;2023-12-07T06:49:29;7.13;;;5.65;;
51475;SDS011;37554;50.362;7.568;2023-12-07T06:51:55;5.35;;;4.85;;
51475;SDS011;37554;50.362;7.568;2023-12-07T06:54:21;5.55;;;4.88;;
51475;SDS011;37554;50.362;7.568;2023-12-07T06:56:47;4.70;;;4.15;;
51475;SDS011;37554;50.362;7.568;2023-12-07T06:59:13;6.72;;;4.55;;
51475;SDS011;37554;50.362;7.568;2023-12-07T07:01:39;4.93;;;3.95;;
51475;SDS011;37554;50.362;7.568;2023-12-07T07:04:05;4.82;;;4.43;;
51475;SDS011;37554;50.362;7.568;2023-12-07T07:06:30;5.53;;;4.38;;
51475;SDS011;37554;50.362;7.568;2023-12-07T07:08:56;9.23;;;4.22;;
51475;SDS011;37554;50.362;7.568;2023-12-07T07:11:21;4.60;;;4.00;;
51475;SDS011;37554;50.362;7.568;2023-12-07T07:13:47;6.22;;;4.18;;
51475;SDS011;37554;50.362;7.568;2023-12-07T07:16:13;3.72;;;3.42;;
51475;SDS011;37554;50.362;7.568;2023-12-07T07:18:39;5.13;;;4.00;;
51475;SDS011;37554;50.362;7.568;2023-12-07T07:21:05;5.45;;;4.28;;
51475;SDS011;37554;50.362;7.568;2023-12-07T07:23:31;4.32;;;3.85;;
51475;SDS011;37554;50.362;7.568;2023-12-07T07:25:58;5.13;;;4.20;;
51475;SDS011;37554;50.362;7.568;2023-12-07T07:28:24;5.65;;;3.92;;
51475;SDS011;37554;50.362;7.568;2023-12-07T07:30:49;4.93;;;3.95;;
51475;SDS011;37554;50.362;7.568;2023-12-07T07:33:16;5.50;;;4.30;;
51475;SDS011;37554;50.362;7.568;2023-12-07T07:35:42;3.90;;;3.55;;
51475;SDS011;37554;50.362;7.568;2023-12-07T07:38:07;4.50;;;4.05;;
51475;SDS011;37554;50.362;7.568;2023-12-07T07:40:33;5.50;;;4.28;;
51475;SDS011;37554;50.362;7.568;2023-12-07T07:42:58;4.55;;;4.07;;
51475;SDS011;37554;50.362;7.568;2023-12-07T07:45:24;4.93;;;4.47;;
51475;SDS011;37554;50.362;7.568;2023-12-07T07:47:50;5.82;;;4.53;;
51475;SDS011;37554;50.362;7.568;2023-12-07T07:50:15;6.10;;;4.38;;
51475;SDS011;37554;50.362;7.568;2023-12-07T07:52:42;6.45;;;4.90;;
51475;SDS011;37554;50.362;7.568;2023-12-07T07:55:08;5.18;;;4.13;;
51475;SDS011;37554;50.362;7.568;2023-12-07T07:57:35;6.20;;;4.20;;
51475;SDS011;37554;50.362;7.568;2023-12-07T08:00:00;5.15;;;4.65;;
51475;SDS011;37554;50.362;7.568;2023-12-07T08:02:26;5.28;;;4.20;;
51475;SDS011;37554;50.362;7.568;2023-12-07T08:04:52;4.93;;;4.03;;
51475;SDS011;37554;50.362;7.568;2023-12-07T08:07:18;4.95;;;4.15;;
51475;SDS011;37554;50.362;7.568;2023-12-07T08:09:43;5.28;;;4.50;;
51475;SDS011;37554;50.362;7.568;2023-12-07T08:12:09;4.40;;;3.92;;
51475;SDS011;37554;50.362;7.568;2023-12-07T08:14:35;5.72;;;4.35;;
51475;SDS011;37554;50.362;7.568;2023-12-07T08:17:01;5.13;;;4.57;;
51475;SDS011;37554;50.362;7.568;2023-12-07T08:19:28;4.80;;;4.25;;
51475;SDS011;37554;50.362;7.568;2023-12-07T08:21:53;5.72;;;4.45;;
51475;SDS011;37554;50.362;7.568;2023-12-07T08:24:19;6.90;;;4.28;;
51475;SDS011;37554;50.362;7.568;2023-12-07T08:26:44;5.25;;;4.32;;
51475;SDS011;37554;50.362;7.568;2023-12-07T08:29:10;4.50;;;3.78;;
51475;SDS011;37554;50.362;7.568;2023-12-07T08:31:35;4.65;;;4.15;;
51475;SDS011;37554;50.362;7.568;2023-12-07T08:34:01;5.50;;;4.15;;
51475;SDS011;37554;50.362;7.568;2023-12-07T08:36:27;4.93;;;4.10;;
51475;SDS011;37554;50.362;7.568;2023-12-07T08:38:53;4.55;;;4.00;;
51475;SDS011;37554;50.362;7.568;2023-12-07T08:41:19;4.70;;;3.60;;
51475;SDS011;37554;50.362;7.568;2023-12-07T08:43:44;3.75;;;3.45;;
51475;SDS011;37554;50.362;7.568;2023-12-07T08:46:10;4.80;;;3.65;;
51475;SDS011;37554;50.362;7.568;2023-12-07T08:48:36;3.95;;;3.60;;
51475;SDS011;37554;50.362;7.568;2023-12-07T08:51:03;4.72;;;4.03;;
51475;SDS011;37554;50.362;7.568;2023-12-07T08:53:28;5.15;;;3.95;;
51475;SDS011;37554;50.362;7.568;2023-12-07T08:55:54;5.05;;;3.92;;
51475;SDS011;37554;50.362;7.568;2023-12-07T08:58:20;4.47;;;3.80;;
51475;SDS011;37554;50.362;7.568;2023-12-07T09:00:46;4.55;;;3.55;;
51475;SDS011;37554;50.362;7.568;2023-12-07T09:03:11;3.75;;;3.45;;
51475;SDS011;37554;50.362;7.568;2023-12-07T09:05:37;4.40;;;3.42;;
51475;SDS011;37554;50.362;7.568;2023-12-07T09:08:03;4.75;;;3.65;;
51475;SDS011;37554;50.362;7.568;2023-12-07T09:10:28;6.38;;;4.00;;
51475;SDS011;37554;50.362;7.568;2023-12-07T09:12:54;4.03;;;3.40;;
51475;SDS011;37554;50.362;7.568;2023-12-07T09:15:19;6.00;;;4.13;;
51475;SDS011;37554;50.362;7.568;2023-12-07T09:17:46;4.15;;;3.67;;
51475;SDS011;37554;50.362;7.568;2023-12-07T09:20:13;3.40;;;3.08;;
51475;SDS011;37554;50.362;7.568;2023-12-07T09:22:43;5.03;;;3.80;;
51475;SDS011;37554;50.362;7.568;2023-12-07T09:25:09;4.75;;;3.50;;
51475;SDS011;37554;50.362;7.568;2023-12-07T09:27:35;4.25;;;3.25;;
51475;SDS011;37554;50.362;7.568;2023-12-07T09:30:05;3.95;;;3.33;;
51475;SDS011;37554;50.362;7.568;2023-12-07T09:32:32;4.45;;;3.95;;
51475;SDS011;37554;50.362;7.568;2023-12-07T09:35:06;5.60;;;3.75;;
51475;SDS011;37554;50.362;7.568;2023-12-07T09:37:33;3.80;;;3.40;;
51475;SDS011;37554;50.362;7.568;2023-12-07T09:39:59;4.88;;;3.08;;
51475;SDS011;37554;50.362;7.568;2023-12-07T09:42:26;4.00;;;3.60;;
51475;SDS011;37554;50.362;7.568;2023-12-07T09:44:52;4.70;;;3.25;;
51475;SDS011;37554;50.362;7.568;2023-12-07T09:47:18;4.03;;;3.10;;
51475;SDS011;37554;50.362;7.568;2023-12-07T09:49:45;3.70;;;2.95;;
51475;SDS011;37554;50.362;7.568;2023-12-07T09:52:10;3.65;;;3.20;;
51475;SDS011;37554;50.362;7.568;2023-12-07T09:54:40;4.55;;;3.15;;
51475;SDS011;37554;50.362;7.568;2023-12-07T09:57:06;2.97;;;2.67;;
51475;SDS011;37554;50.362;7.568;2023-12-07T09:59:35;3.17;;;2.72;;
51475;SDS011;37554;50.362;7.568;2023-12-07T10:02:01;4.15;;;2.92;;
51475;SDS011;37554;50.362;7.568;2023-12-07T10:04:27;3.53;;;2.60;;
51475;SDS011;37554;50.362;7.568;2023-12-07T10:06:53;3.15;;;2.70;;
51475;SDS011;37554;50.362;7.568;2023-12-07T10:09:19;3.28;;;2.97;;
51475;SDS011;37554;50.362;7.568;2023-12-07T10:11:46;3.10;;;2.78;;
51475;SDS011;37554;50.362;7.568;2023-12-07T10:14:12;5.15;;;2.88;;
51475;SDS011;37554;50.362;7.568;2023-12-07T10:16:39;4.63;;;2.67;;
51475;SDS011;37554;50.362;7.568;2023-12-07T10:19:20;3.08;;;2.70;;
51475;SDS011;37554;50.362;7.568;2023-12-07T10:21:49;3.53;;;2.78;;
51475;SDS011;37554;50.362;7.568;2023-12-07T10:24:20;4.50;;;3.10;;
51475;SDS011;37554;50.362;7.568;2023-12-07T10:26:48;4.63;;;2.83;;
51475;SDS011;37554;50.362;7.568;2023-12-07T10:29:17;3.50;;;2.72;;
51475;SDS011;37554;50.362;7.568;2023-12-07T10:31:45;3.90;;;2.65;;
51475;SDS011;37554;50.362;7.568;2023-12-07T10:34:12;3.58;;;2.78;;
51475;SDS011;37554;50.362;7.568;2023-12-07T10:36:38;4.18;;;3.15;;
51475;SDS011;37554;50.362;7.568;2023-12-07T10:39:03;3.42;;;2.90;;
51475;SDS011;37554;50.362;7.568;2023-12-07T10:41:33;3.35;;;2.70;;
51475;SDS011;37554;50.362;7.568;2023-12-07T10:44:00;3.17;;;2.88;;
51475;SDS011;37554;50.362;7.568;2023-12-07T10:46:27;2.75;;;2.55;;
51475;SDS011;37554;50.362;7.568;2023-12-07T10:48:59;4.22;;;2.83;;
51475;SDS011;37554;50.362;7.568;2023-12-07T10:51:37;3.50;;;3.00;;
51475;SDS011;37554;50.362;7.568;2023-12-07T10:54:06;2.80;;;2.15;;
51475;SDS011;37554;50.362;7.568;2023-12-07T10:56:43;2.58;;;2.38;;
51475;SDS011;37554;50.362;7.568;2023-12-07T10:59:10;2.78;;;2.20;;
51475;SDS011;37554;50.362;7.568;2023-12-07T11:01:40;2.83;;;2.47;;
51475;SDS011;37554;50.362;7.568;2023-12-07T11:04:08;3.88;;;2.40;;
51475;SDS011;37554;50.362;7.568;2023-12-07T11:06:39;3.28;;;2.30;;
51475;SDS011;37554;50.362;7.568;2023-12-07T11:09:07;2.50;;;2.13;;
51475;SDS011;37554;50.362;7.568;2023-12-07T11:11:46;2.97;;;2.22;;
51475;SDS011;37554;50.362;7.568;2023-12-07T11:14:16;3.00;;;2.42;;
51475;SDS011;37554;50.362;7.568;2023-12-07T11:16:43;3.33;;;2.00;;
51475;SDS011;37554;50.362;7.568;2023-12-07T11:21:55;2.60;;;2.40;;
51475;SDS011;37554;50.362;7.568;2023-12-07T11:24:23;2.40;;;1.80;;
51475;SDS011;37554;50.362;7.568;2023-12-07T11:26:52;2.42;;;2.10;;
51475;SDS011;37554;50.362;7.568;2023-12-07T11:29:20;3.33;;;2.13;;
51475;SDS011;37554;50.362;7.568;2023-12-07T11:31:46;2.63;;;2.40;;
51475;SDS011;37554;50.362;7.568;2023-12-07T11:34:13;3.95;;;2.00;;
51475;SDS011;37554;50.362;7.568;2023-12-07T11:36:40;3.22;;;2.20;;
51475;SDS011;37554;50.362;7.568;2023-12-07T11:41:46;2.25;;;2.05;;
51475;SDS011;37554;50.362;7.568;2023-12-07T11:44:23;2.50;;;2.10;;
51475;SDS011;37554;50.362;7.568;2023-12-07T11:46:58;3.22;;;2.03;;
51475;SDS011;37554;50.362;7.568;2023-12-07T11:49:23;3.38;;;2.08;;
51475;SDS011;37554;50.362;7.568;2023-12-07T11:51:49;4.00;;;2.80;;
51475;SDS011;37554;50.362;7.568;2023-12-07T11:54:15;3.30;;;2.35;;
51475;SDS011;37554;50.362;7.568;2023-12-07T11:56:42;2.40;;;2.20;;
51475;SDS011;37554;50.362;7.568;2023-12-07T11:59:08;3.13;;;2.03;;
51475;SDS011;37554;50.362;7.568;2023-12-07T12:01:34;2.53;;;2.33;;
51475;SDS011;37554;50.362;7.568;2023-12-07T12:04:00;3.58;;;2.22;;
51475;SDS011;37554;50.362;7.568;2023-12-07T12:06:25;4.30;;;2.70;;
51475;SDS011;37554;50.362;7.568;2023-12-07T12:08:52;2.85;;;2.30;;
51475;SDS011;37554;50.362;7.568;2023-12-07T12:11:17;4.45;;;2.88;;
51475;SDS011;37554;50.362;7.568;2023-12-07T12:13:44;2.83;;;2.47;;
51475;SDS011;37554;50.362;7.568;2023-12-07T12:16:12;2.53;;;2.33;;
51475;SDS011;37554;50.362;7.568;2023-12-07T12:18:39;2.13;;;1.92;;
51475;SDS011;37554;50.362;7.568;2023-12-07T12:21:06;2.67;;;2.40;;
51475;SDS011;37554;50.362;7.568;2023-12-07T12:23:33;2.78;;;2.30;;
51475;SDS011;37554;50.362;7.568;2023-12-07T12:26:00;2.47;;;2.08;;
51475;SDS011;37554;50.362;7.568;2023-12-07T12:28:26;3.83;;;2.17;;
51475;SDS011;37554;50.362;7.568;2023-12-07T12:30:52;4.00;;;3.60;;
51475;SDS011;37554;50.362;7.568;2023-12-07T12:33:18;6.57;;;3.88;;
51475;SDS011;37554;50.362;7.568;2023-12-07T12:35:43;5.70;;;4.57;;
51475;SDS011;37554;50.362;7.568;2023-12-07T12:38:10;5.15;;;4.65;;
51475;SDS011;37554;50.362;7.568;2023-12-07T12:40:36;4.65;;;3.80;;
51475;SDS011;37554;50.362;7.568;2023-12-07T12:43:02;4.85;;;3.97;;
51475;SDS011;37554;50.362;7.568;2023-12-07T12:45:28;6.32;;;3.67;;
51475;SDS011;37554;50.362;7.568;2023-12-07T12:47:53;4.75;;;3.13;;
51475;SDS011;37554;50.362;7.568;2023-12-07T12:50:33;4.40;;;3.13;;
51475;SDS011;37554;50.362;7.568;2023-12-07T12:53:05;4.15;;;2.78;;
51475;SDS011;37554;50.362;7.568;2023-12-07T12:55:33;5.40;;;2.60;;
51475;SDS011;37554;50.362;7.568;2023-12-07T12:58:00;3.60;;;2.67;;
51475;SDS011;37554;50.362;7.568;2023-12-07T13:00:26;4.00;;;2.08;;
51475;SDS011;37554;50.362;7.568;2023-12-07T13:02:52;2.72;;;2.20;;
51475;SDS011;37554;50.362;7.568;2023-12-07T13:05:17;4.15;;;2.25;;
51475;SDS011;37554;50.362;7.568;2023-12-07T13:07:43;4.25;;;2.20;;
51475;SDS011;37554;50.362;7.568;2023-12-07T13:10:10;2.03;;;1.83;;
51475;SDS011;37554;50.362;7.568;2023-12-07T13:12:35;3.55;;;1.90;;
51475;SDS011;37554;50.362;7.568;2023-12-07T13:15:01;2.78;;;2.10;;
51475;SDS011;37554;50.362;7.568;2023-12-07T13:17:27;3.90;;;1.88;;
51475;SDS011;37554;50.362;7.568;2023-12-07T13:19:52;3.75;;;2.17;;
51475;SDS011;37554;50.362;7.568;2023-12-07T13:22:19;2.78;;;1.95;;
51475;SDS011;37554;50.362;7.568;2023-12-07T13:24:45;2.30;;;2.00;;
51475;SDS011;37554;50.362;7.568;2023-12-07T13:27:13;3.60;;;2.30;;
51475;SDS011;37554;50.362;7.568;2023-12-07T13:29:40;3.75;;;1.80;;
51475;SDS011;37554;50.362;7.568;2023-12-07T13:32:06;4.82;;;2.03;;
51475;SDS011;37554;50.362;7.568;2023-12-07T13:34:31;2.10;;;1.88;;
51475;SDS011;37554;50.362;7.568;2023-12-07T13:36:57;1.77;;;1.67;;
51475;SDS011;37554;50.362;7.568;2023-12-07T13:39:23;3.40;;;2.10;;
51475;SDS011;37554;50.362;7.568;2023-12-07T13:41:48;3.35;;;1.67;;
51475;SDS011;37554;50.362;7.568;2023-12-07T13:44:15;2.88;;;2.05;;
51475;SDS011;37554;50.362;7.568;2023-12-07T13:46:42;1.73;;;1.63;;
51475;SDS011;37554;50.362;7.568;2023-12-07T13:49:09;3.22;;;1.80;;
51475;SDS011;37554;50.362;7.568;2023-12-07T13:51:36;3.08;;;1.80;;
51475;SDS011;37554;50.362;7.568;2023-12-07T13:54:02;2.88;;;2.13;;
51475;SDS011;37554;50.362;7.568;2023-12-07T13:56:28;1.77;;;1.48;;
51475;SDS011;37554;50.362;7.568;2023-12-07T13:58:54;2.03;;;1.45;;
51475;SDS011;37554;50.362;7.568;2023-12-07T14:01:19;2.03;;;1.80;;
51475;SDS011;37554;50.362;7.568;2023-12-07T14:03:45;1.75;;;1.65;;
51475;SDS011;37554;50.362;7.568;2023-12-07T14:06:11;4.07;;;1.90;;
51475;SDS011;37554;50.362;7.568;2023-12-07T14:08:45;2.45;;;1.67;;
51475;SDS011;37554;50.362;7.568;2023-12-07T14:11:11;2.55;;;1.85;;
51475;SDS011;37554;50.362;7.568;2023-12-07T14:13:38;3.55;;;1.65;;
51475;SDS011;37554;50.362;7.568;2023-12-07T14:16:04;2.38;;;1.80;;
51475;SDS011;37554;50.362;7.568;2023-12-07T14:18:33;1.98;;;1.75;;
51475;SDS011;37554;50.362;7.568;2023-12-07T14:20:59;1.83;;;1.70;;
51475;SDS011;37554;50.362;7.568;2023-12-07T14:23:25;2.15;;;1.92;;
51475;SDS011;37554;50.362;7.568;2023-12-07T14:25:51;1.90;;;1.80;;
51475;SDS011;37554;50.362;7.568;2023-12-07T14:28:17;1.80;;;1.70;;
51475;SDS011;37554;50.362;7.568;2023-12-07T14:30:43;2.03;;;1.85;;
51475;SDS011;37554;50.362;7.568;2023-12-07T14:33:09;2.53;;;1.95;;
51475;SDS011;37554;50.362;7.568;2023-12-07T14:35:35;2.00;;;1.77;;
51475;SDS011;37554;50.362;7.568;2023-12-07T14:38:00;1.98;;;1.77;;
51475;SDS011;37554;50.362;7.568;2023-12-07T14:40:26;2.10;;;1.90;;
51475;SDS011;37554;50.362;7.568;2023-12-07T14:42:51;2.10;;;1.90;;
51475;SDS011;37554;50.362;7.568;2023-12-07T14:45:17;2.63;;;1.95;;
51475;SDS011;37554;50.362;7.568;2023-12-07T14:47:45;2.47;;;1.90;;
51475;SDS011;37554;50.362;7.568;2023-12-07T14:50:11;2.40;;;1.90;;
51475;SDS011;37554;50.362;7.568;2023-12-07T14:52:36;2.25;;;1.83;;
51475;SDS011;37554;50.362;7.568;2023-12-07T14:55:02;2.22;;;1.70;;